Time;durP1;ratioP1;P1;durP2;ratioP2;P2;SDS_P1;SDS_P2;PMS_P1;PMS_P2;Temp;Humidity;BMP_temperature;BMP_pressure;BME280_temperature;BME280_humidity;BME280_pressure;Samples;Min_cycle;Max_cycle;Signal;HPM_P1;HPM_P2
2024/03/01 00:02:51;;;;;;;70.30;37.90;;;;;;;10.33;95.47;100110.42;130379;1259;105902;-85
2024/03/01 00:05:57;;;;;;;57.90;34.10;;;;;;;10.33;95.43;100108.65;130321;1264;107522;-86
2024/03/01 00:09:03;;;;;;;67.20;36.90;;;;;;;10.32;95.69;100109.11;130321;1259;106878;-85
2024/03/01 00:12:10;;;;;;;61.70;36.20;;;;;;;10.32;95.65;100107.14;130282;1260;107447;-85
2024/03/01 00:15:17;;;;;;;62.90;36.90;;;;;;;10.33;95.47;100104.50;130316;1260;106852;-85
2024/03/01 00:18:22;;;;;;;84.60;45.70;;;;;;;10.36;95.64;100099.92;130341;1264;107622;-85
2024/03/01 00:21:28;;;;;;;64.50;38.50;;;;;;;10.37;95.27;100096.11;130427;1259;108446;-85
2024/03/01 00:24:33;;;;;;;63.40;36.50;;;;;;;10.35;95.21;100092.27;130303;1263;107622;-85
2024/03/01 00:27:39;;;;;;;62.70;34.20;;;;;;;10.32;95.52;100089.48;130409;1263;106951;-84
2024/03/01 00:30:45;;;;;;;61.70;36.50;;;;;;;10.31;95.40;100085.73;130429;1259;107810;-85
2024/03/01 00:33:51;;;;;;;61.90;36.40;;;;;;;10.32;95.41;100084.02;130357;1263;106949;-85
2024/03/01 00:36:56;;;;;;;61.30;38.10;;;;;;;10.32;95.49;100076.40;130416;1259;108504;-85
2024/03/01 00:40:02;;;;;;;61.80;38.80;;;;;;;10.31;95.20;100071.14;130342;1263;108546;-85
2024/03/01 00:43:08;;;;;;;60.80;36.70;;;;;;;10.28;95.05;100071.06;130341;1260;108688;-85
2024/03/01 00:46:13;;;;;;;59.60;35.00;;;;;;;10.27;94.84;100064.95;130356;1264;108683;-85
2024/03/01 00:49:19;;;;;;;61.80;34.60;;;;;;;10.25;95.21;100058.06;130284;1263;107746;-85
2024/03/01 00:52:25;;;;;;;63.40;36.10;;;;;;;10.27;95.04;100052.15;130355;1262;106847;-84
2024/03/01 00:55:31;;;;;;;63.10;36.90;;;;;;;10.30;95.51;100050.27;130370;1259;107619;-85
2024/03/01 00:58:36;;;;;;;62.50;37.60;;;;;;;10.30;95.13;100046.83;130344;1264;106357;-85
2024/03/01 01:01:42;;;;;;;62.60;37.30;;;;;;;10.30;94.95;100041.17;130426;1260;108665;-85
2024/03/01 01:04:48;;;;;;;61.60;35.60;;;;;;;10.29;95.00;100037.53;130367;1259;108328;-85
2024/03/01 01:07:53;;;;;;;58.60;34.50;;;;;;;10.26;94.84;100033.73;130476;1264;106838;-85
2024/03/01 01:10:59;;;;;;;59.90;36.40;;;;;;;10.23;95.03;100030.08;130496;1259;106311;-85
2024/03/01 01:14:05;;;;;;;63.70;38.60;;;;;;;10.23;95.18;100031.73;130525;1263;107248;-85
2024/03/01 01:17:11;;;;;;;63.90;38.90;;;;;;;10.24;95.10;100039.09;130444;1263;107712;-85
2024/03/01 01:20:16;;;;;;;62.80;36.70;;;;;;;10.23;94.92;100035.91;130456;1259;107422;-85
2024/03/01 01:23:22;;;;;;;72.20;39.90;;;;;;;10.22;95.05;100039.45;130550;1259;107680;-86
2024/03/01 01:26:28;;;;;;;67.40;35.20;;;;;;;10.18;94.90;100038.05;130522;1274;108650;-85
2024/03/01 01:29:34;;;;;;;63.00;38.50;;;;;;;10.18;95.06;100036.98;126390;1263;5270102;-85
2024/03/01 01:32:39;;;;;;;59.40;37.90;;;;;;;10.19;95.05;100035.48;130346;1259;108470;-86
2024/03/01 01:35:45;;;;;;;65.30;40.10;;;;;;;10.21;94.77;100026.60;130305;1264;107581;-85
2024/03/01 01:38:51;;;;;;;68.50;40.40;;;;;;;10.19;94.80;100021.42;130286;1263;108597;-85
2024/03/01 01:41:58;;;;;;;63.50;35.80;;;;;;;10.14;95.26;100018.00;130380;1263;107100;-85
2024/03/01 01:45:04;;;;;;;61.30;36.10;;;;;;;10.12;94.92;100014.02;130460;1263;107842;-84
2024/03/01 01:48:10;;;;;;;61.20;35.40;;;;;;;10.11;95.01;100012.84;130518;1264;108828;-85
2024/03/01 01:51:18;;;;;;;66.00;37.90;;;;;;;10.13;95.04;100003.96;130475;1259;108613;-85
2024/03/01 01:54:24;;;;;;;61.20;36.40;;;;;;;10.15;95.21;100003.58;130336;1259;107424;-84
2024/03/01 01:57:30;;;;;;;66.60;38.50;;;;;;;10.17;95.19;99995.55;130343;1264;107592;-84
2024/03/01 02:00:36;;;;;;;61.70;37.50;;;;;;;10.17;94.87;99993.02;130363;1264;106994;-85
2024/03/01 02:03:42;;;;;;;62.60;37.10;;;;;;;10.16;95.02;99987.05;130594;1263;106908;-84
2024/03/01 02:06:49;;;;;;;60.20;35.00;;;;;;;10.13;94.95;99985.40;130261;1263;107211;-84
2024/03/01 02:09:55;;;;;;;70.50;39.60;;;;;;;10.14;95.01;99981.84;130410;1263;108601;-84
2024/03/01 02:13:01;;;;;;;62.20;38.60;;;;;;;10.12;94.77;99975.95;130393;1264;107874;-86
2024/03/01 02:16:08;;;;;;;62.60;37.70;;;;;;;10.14;94.80;99976.11;130502;1265;108630;-87
2024/03/01 02:19:16;;;;;;;61.70;38.60;;;;;;;10.13;94.66;99971.27;130382;1259;108760;-85
2024/03/01 02:22:24;;;;;;;66.80;38.50;;;;;;;10.08;94.75;99973.16;130306;1259;107526;-85
2024/03/01 02:25:30;;;;;;;61.80;36.80;;;;;;;10.06;94.96;99969.64;130375;1265;107258;-85
2024/03/01 02:28:43;;;;;;;62.40;37.50;;;;;;;10.06;94.99;99964.63;130376;1259;106851;-85
2024/03/01 02:31:48;;;;;;;66.60;38.20;;;;;;;10.07;95.08;99961.40;130348;1263;108620;-85
2024/03/01 02:34:54;;;;;;;64.60;38.10;;;;;;;10.07;94.82;99959.96;130471;1263;107197;-84
2024/03/01 02:37:59;;;;;;;69.60;40.40;;;;;;;10.06;94.60;99958.59;130606;1259;108816;-85
2024/03/01 02:41:06;;;;;;;60.00;36.30;;;;;;;10.01;94.93;99956.23;130346;1263;108407;-85
2024/03/01 02:44:11;;;;;;;59.10;34.50;;;;;;;9.99;95.01;99953.29;130349;1259;108668;-84
2024/03/01 02:47:17;;;;;;;62.70;38.00;;;;;;;9.99;94.94;99948.12;130441;1259;107520;-86
2024/03/01 02:50:23;;;;;;;61.60;38.10;;;;;;;10.01;95.16;99941.20;130490;1259;108596;-85
2024/03/01 02:53:28;;;;;;;66.80;39.10;;;;;;;10.04;95.11;99935.33;130534;1263;107832;-86
2024/03/01 02:56:34;;;;;;;67.00;40.30;;;;;;;10.06;94.65;99929.44;130419;1264;106438;-86
2024/03/01 02:59:40;;;;;;;72.80;38.30;;;;;;;10.03;94.55;99931.05;130411;1259;106478;-86
2024/03/01 03:02:46;;;;;;;65.00;36.80;;;;;;;10.01;95.08;99932.61;130497;1264;108669;-86
2024/03/01 03:05:52;;;;;;;64.70;36.80;;;;;;;10.02;94.80;99935.04;130567;1261;107565;-86
2024/03/01 03:08:58;;;;;;;69.90;40.10;;;;;;;10.03;94.65;99926.39;130402;1263;106444;-86
2024/03/01 03:12:06;;;;;;;68.90;40.20;;;;;;;10.02;94.72;99918.45;130402;1264;107057;-85
2024/03/01 03:15:14;;;;;;;67.90;39.20;;;;;;;9.98;94.54;99911.77;130393;1259;105943;-85
2024/03/01 03:18:19;;;;;;;68.00;38.00;;;;;;;9.96;94.79;99916.31;130366;1263;107800;-85
2024/03/01 03:21:26;;;;;;;67.40;36.70;;;;;;;9.94;94.84;99917.59;130400;1262;108738;-85
2024/03/01 03:24:31;;;;;;;67.40;39.00;;;;;;;9.90;94.72;99915.48;130357;1265;108914;-85
2024/03/01 03:27:37;;;;;;;67.50;38.30;;;;;;;9.89;94.95;99917.05;130337;1261;107696;-85
2024/03/01 03:30:44;;;;;;;67.40;40.10;;;;;;;9.89;94.68;99915.80;130356;1259;108859;-85
2024/03/01 03:33:50;;;;;;;67.70;39.30;;;;;;;9.90;94.81;99914.64;130349;1264;107874;-85
2024/03/01 03:36:55;;;;;;;68.20;38.70;;;;;;;9.86;94.96;99912.32;130421;1259;108739;-84
2024/03/01 03:40:13;;;;;;;63.70;37.10;;;;;;;9.83;94.93;99911.75;130372;1259;108773;-84
2024/03/01 03:43:18;;;;;;;60.40;34.40;;;;;;;9.82;94.97;99914.13;130347;1259;106716;-84
2024/03/01 03:46:24;;;;;;;61.30;37.80;;;;;;;9.85;94.77;99906.98;130388;1259;107632;-83
2024/03/01 03:49:30;;;;;;;63.70;38.80;;;;;;;9.86;94.81;99903.09;130344;1259;107899;-83
2024/03/01 03:52:36;;;;;;;68.60;38.50;;;;;;;9.88;94.62;99907.92;130317;1259;107946;-82
2024/03/01 03:55:42;;;;;;;65.60;38.50;;;;;;;9.88;94.60;99912.71;130345;1259;107450;-83
2024/03/01 03:58:49;;;;;;;65.60;37.60;;;;;;;9.86;94.71;99906.12;130349;1264;107738;-82
2024/03/01 04:01:54;;;;;;;62.20;35.90;;;;;;;9.83;94.45;99903.70;130356;1264;106324;-83
2024/03/01 04:05:01;;;;;;;65.60;36.70;;;;;;;9.82;94.71;99903.34;130351;1265;107171;-83
2024/03/01 04:08:08;;;;;;;63.70;37.70;;;;;;;9.83;94.83;99902.69;130458;1259;107742;-82
2024/03/01 04:11:13;;;;;;;67.50;40.20;;;;;;;9.86;94.34;99904.83;130334;1263;108351;-83
2024/03/01 04:14:19;;;;;;;65.60;39.90;;;;;;;9.86;94.72;99899.70;130332;1259;107696;-83
2024/03/01 04:17:28;;;;;;;65.10;38.60;;;;;;;9.84;94.57;99896.85;130320;1263;105934;-83
2024/03/01 04:20:34;;;;;;;65.30;36.40;;;;;;;9.80;94.53;99894.04;130306;1263;106524;-82
2024/03/01 04:23:39;;;;;;;66.90;38.30;;;;;;;9.79;94.71;99890.77;130286;1259;109206;-82
2024/03/01 04:26:45;;;;;;;68.20;39.00;;;;;;;9.81;94.81;99887.21;130447;1265;108590;-83
2024/03/01 04:29:51;;;;;;;68.20;40.90;;;;;;;9.81;94.77;99889.05;130497;1265;106819;-84
2024/03/01 04:32:56;;;;;;;71.20;41.70;;;;;;;9.81;94.54;99881.59;130294;1260;107761;-83
2024/03/01 04:36:02;;;;;;;66.70;40.00;;;;;;;9.78;94.50;99879.67;130314;1262;108632;-83
2024/03/01 04:39:07;;;;;;;66.90;38.70;;;;;;;9.74;94.75;99880.48;130322;1260;107069;-83
2024/03/01 04:42:13;;;;;;;71.60;42.40;;;;;;;9.72;94.57;99879.50;130410;1263;106390;-83
2024/03/01 04:45:19;;;;;;;68.10;40.80;;;;;;;9.73;94.57;99882.39;130536;1265;108774;-83
2024/03/01 04:48:24;;;;;;;74.10;43.60;;;;;;;9.74;94.47;99884.08;130503;1259;106734;-82
2024/03/01 04:51:30;;;;;;;68.80;41.10;;;;;;;9.75;94.54;99882.04;130495;1263;107720;-83
2024/03/01 04:54:36;;;;;;;78.30;42.10;;;;;;;9.73;94.43;99874.73;130515;1263;108035;-83
2024/03/01 04:57:41;;;;;;;70.50;40.60;;;;;;;9.72;94.60;99881.95;130475;1259;106415;-84
2024/03/01 05:00:48;;;;;;;70.70;38.70;;;;;;;9.72;94.66;99880.39;130336;1264;107725;-83
2024/03/01 05:03:54;;;;;;;78.00;43.00;;;;;;;9.75;94.75;99875.75;130439;1264;108045;-83
2024/03/01 05:06:59;;;;;;;71.80;41.60;;;;;;;9.78;94.51;99877.94;130436;1263;106702;-84
2024/03/01 05:10:08;;;;;;;76.30;44.90;;;;;;;9.80;94.48;99883.55;130462;1259;107033;-83
2024/03/01 05:13:14;;;;;;;76.10;43.90;;;;;;;9.80;94.24;99879.48;130483;1265;107644;-83
2024/03/01 05:16:21;;;;;;;76.50;44.70;;;;;;;9.79;94.39;99882.97;130349;1264;106207;-84
2024/03/01 05:19:27;;;;;;;76.80;42.70;;;;;;;9.76;94.46;99878.36;130321;1259;106666;-83
2024/03/01 05:22:36;;;;;;;74.60;41.10;;;;;;;9.74;94.67;99881.88;130433;1264;107287;-82
2024/03/01 05:25:42;;;;;;;74.30;41.40;;;;;;;9.71;94.49;99881.68;130252;1263;107486;-83
2024/03/01 05:28:48;;;;;;;74.90;43.00;;;;;;;9.71;94.46;99882.65;130406;1264;108521;-83
2024/03/01 05:31:54;;;;;;;73.80;43.70;;;;;;;9.72;94.30;99885.48;130339;1265;107655;-83
2024/03/01 05:35:00;;;;;;;74.10;43.10;;;;;;;9.75;94.48;99885.88;130295;1264;107673;-83
2024/03/01 05:38:06;;;;;;;73.70;43.30;;;;;;;9.75;94.37;99884.30;130285;1262;107893;-83
2024/03/01 05:41:11;;;;;;;74.30;43.70;;;;;;;9.71;94.56;99886.11;130343;1264;108732;-83
2024/03/01 05:44:18;;;;;;;73.20;42.60;;;;;;;9.68;94.42;99891.42;130307;1262;107770;-83
2024/03/01 05:47:24;;;;;;;69.50;41.90;;;;;;;9.66;94.54;99892.16;130343;1264;107008;-84
2024/03/01 05:50:30;;;;;;;77.00;44.90;;;;;;;9.71;94.48;99888.65;130367;1260;108449;-83
2024/03/01 05:53:35;;;;;;;75.80;44.70;;;;;;;9.72;94.43;99890.45;130403;1263;106960;-83
2024/03/01 05:56:41;;;;;;;73.80;43.10;;;;;;;9.70;94.58;99897.59;130357;1259;108719;-85
2024/03/01 05:59:47;;;;;;;81.60;46.20;;;;;;;9.71;94.51;99902.89;130370;1259;107370;-83
2024/03/01 06:02:52;;;;;;;73.20;41.70;;;;;;;9.69;94.19;99903.78;130477;1259;107606;-83
2024/03/01 06:05:58;;;;;;;73.10;40.50;;;;;;;9.69;94.58;99900.39;130685;1263;107713;-83
2024/03/01 06:09:07;;;;;;;73.00;43.70;;;;;;;9.75;94.47;99898.47;130436;1262;107237;-83
2024/03/01 06:12:14;;;;;;;75.00;43.80;;;;;;;9.82;94.31;99896.38;130281;1267;107714;-79
2024/03/01 06:15:20;;;;;;;74.60;44.70;;;;;;;9.86;94.12;99895.99;130343;1264;107921;-80
2024/03/01 06:18:25;;;;;;;75.20;44.80;;;;;;;9.90;94.32;99887.93;130061;1265;107813;-82
2024/03/01 06:21:31;;;;;;;99.40;65.90;;;;;;;9.93;93.90;99889.70;130244;1262;107817;-82
2024/03/01 06:24:38;;;;;;;78.20;42.70;;;;;;;9.96;94.05;99888.94;130267;1264;107804;-81
2024/03/01 06:27:43;;;;;;;79.00;46.80;;;;;;;9.99;93.88;99890.94;130373;1262;106776;-81
2024/03/01 06:30:49;;;;;;;72.60;44.50;;;;;;;10.05;93.82;99890.44;130293;1262;108222;-81
2024/03/01 06:33:55;;;;;;;74.50;45.40;;;;;;;10.13;93.70;99894.29;130342;1259;107498;-83
2024/03/01 06:37:00;;;;;;;71.00;43.60;;;;;;;10.16;93.42;99883.13;130658;1265;106018;-81
2024/03/01 06:40:09;;;;;;;74.00;42.60;;;;;;;10.21;93.45;99881.55;130253;1260;109121;-82
2024/03/01 06:43:15;;;;;;;68.30;40.50;;;;;;;10.23;93.32;99871.83;130282;1265;106663;-81
2024/03/01 06:46:23;;;;;;;62.00;39.80;;;;;;;10.28;93.17;99870.86;130647;1259;107020;-81
2024/03/01 06:49:29;;;;;;;68.40;42.00;;;;;;;10.34;93.23;99878.04;130435;1259;108827;-80
2024/03/01 06:52:34;;;;;;;68.10;42.80;;;;;;;10.38;93.09;99876.29;130314;1264;108673;-80
2024/03/01 06:55:40;;;;;;;69.10;43.50;;;;;;;10.42;92.91;99870.84;130454;1265;107635;-82
2024/03/01 06:58:45;;;;;;;68.10;41.00;;;;;;;10.45;92.90;99877.13;130637;1265;107187;-85
2024/03/01 07:01:51;;;;;;;66.70;39.50;;;;;;;10.47;93.22;99883.13;130413;1260;107577;-80
2024/03/01 07:04:57;;;;;;;62.10;40.00;;;;;;;10.48;92.58;99880.95;130521;1264;108630;-80
2024/03/01 07:08:03;;;;;;;62.90;41.20;;;;;;;10.50;92.90;99886.20;133103;1260;107621;-80
2024/03/01 07:11:09;;;;;;;70.20;42.30;;;;;;;10.55;92.74;99885.78;133028;1260;107211;-83
2024/03/01 07:14:18;;;;;;;62.60;41.20;;;;;;;10.58;92.24;99884.98;130776;1263;107529;-81
2024/03/01 07:17:24;;;;;;;59.60;40.60;;;;;;;10.62;92.63;99883.83;132064;1261;108860;-82
2024/03/01 07:20:29;;;;;;;64.10;40.50;;;;;;;10.64;92.08;99882.58;130679;1259;108199;-83
2024/03/01 07:23:36;;;;;;;64.90;40.80;;;;;;;10.66;92.00;99884.70;130466;1263;106711;-81
2024/03/01 07:26:41;;;;;;;63.20;41.70;;;;;;;10.64;92.07;99876.53;130395;1263;107621;-84
2024/03/01 07:29:47;;;;;;;62.80;41.50;;;;;;;10.65;91.71;99875.88;130795;1263;108668;-81
2024/03/01 07:32:53;;;;;;;63.30;41.80;;;;;;;10.63;91.42;99876.67;130438;1259;107383;-82
2024/03/01 07:35:59;;;;;;;65.10;41.10;;;;;;;10.58;91.59;99874.69;130383;1259;108646;-80
2024/03/01 07:39:04;;;;;;;61.60;39.30;;;;;;;10.56;91.29;99874.11;130559;1263;107733;-82
2024/03/01 07:42:10;;;;;;;66.00;39.70;;;;;;;10.57;91.92;99881.85;130986;1259;106865;-88
2024/03/01 07:45:16;;;;;;;63.60;40.20;;;;;;;10.61;91.62;99872.36;130988;1259;107799;-89
2024/03/01 07:48:21;;;;;;;56.80;39.00;;;;;;;10.63;91.37;99873.30;130946;1265;107741;-88
2024/03/01 07:51:27;;;;;;;60.90;39.80;;;;;;;10.69;91.38;99883.79;130501;1263;108303;-81
2024/03/01 07:54:32;;;;;;;57.20;39.50;;;;;;;10.74;91.59;99879.02;130384;1259;107555;-80
2024/03/01 07:57:38;;;;;;;60.30;39.50;;;;;;;10.74;91.10;99869.05;130392;1263;108749;-80
2024/03/01 08:00:44;;;;;;;56.90;36.10;;;;;;;10.76;90.90;99872.61;130408;1265;107372;-82
2024/03/01 08:03:49;;;;;;;57.40;37.90;;;;;;;10.80;90.95;99876.65;130407;1263;107865;-84
2024/03/01 08:06:55;;;;;;;57.20;38.10;;;;;;;10.83;90.81;99871.72;130428;1263;107060;-82
2024/03/01 08:10:01;;;;;;;59.40;39.00;;;;;;;10.92;90.73;99864.89;130393;1261;107667;-83
2024/03/01 08:13:07;;;;;;;67.20;43.20;;;;;;;11.00;90.52;99853.98;130360;1263;107198;-83
2024/03/01 08:16:15;;;;;;;59.20;39.60;;;;;;;11.07;89.79;99854.92;130570;1259;108548;-82
2024/03/01 08:19:22;;;;;;;57.40;39.00;;;;;;;11.09;90.27;99865.63;130459;1263;108725;-81
2024/03/01 08:22:28;;;;;;;57.90;37.10;;;;;;;11.12;89.98;99861.49;130265;1262;108012;-82
2024/03/01 08:25:36;;;;;;;65.40;40.20;;;;;;;11.11;89.76;99844.94;130489;1265;106930;-81
2024/03/01 08:28:44;;;;;;;57.10;37.50;;;;;;;11.15;89.88;99845.98;130391;1259;108606;-81
2024/03/01 08:31:49;;;;;;;57.20;37.70;;;;;;;11.19;89.42;99842.73;130426;1265;107731;-84
2024/03/01 08:34:56;;;;;;;58.20;40.20;;;;;;;11.22;89.16;99835.44;130427;1265;107713;-81
2024/03/01 08:38:04;;;;;;;57.30;38.10;;;;;;;11.26;89.02;99820.90;130457;1263;107570;-85
2024/03/01 08:41:10;;;;;;;58.20;39.20;;;;;;;11.32;89.13;99818.79;131300;1265;106798;-87
2024/03/01 08:44:50;;;;;;;58.20;40.00;;;;;;;11.32;88.99;99823.09;130902;1259;108697;-87
2024/03/01 08:48:06;;;;;;;57.00;37.90;;;;;;;11.30;88.64;99821.04;130711;1265;107282;-86
2024/03/01 08:51:12;;;;;;;59.00;37.60;;;;;;;11.33;88.92;99823.83;130752;1263;106888;-87
2024/03/01 08:54:20;;;;;;;59.80;38.40;;;;;;;11.43;88.64;99819.98;130647;1263;108714;-85
2024/03/01 08:57:28;;;;;;;56.60;38.10;;;;;;;11.52;88.59;99818.63;130538;1259;107792;-85
2024/03/01 09:00:38;;;;;;;59.90;40.10;;;;;;;11.61;88.02;99812.14;130394;1265;107832;-84
2024/03/01 09:03:44;;;;;;;57.50;39.00;;;;;;;11.63;87.86;99808.56;130492;1264;106906;-87
2024/03/01 09:07:04;;;;;;;56.90;40.90;;;;;;;11.67;87.65;99810.91;131023;1259;108339;-83
2024/03/01 09:10:18;;;;;;;54.70;38.50;;;;;;;11.70;87.50;99811.23;130378;1265;108446;-83
2024/03/01 09:13:26;;;;;;;56.70;40.80;;;;;;;11.75;87.88;99800.73;130633;1264;106439;-83
2024/03/01 09:16:32;;;;;;;54.50;37.50;;;;;;;11.82;87.35;99805.86;130609;1264;108512;-83
2024/03/01 09:19:41;;;;;;;58.10;39.00;;;;;;;11.81;87.04;99804.16;130444;1265;108492;-83
2024/03/01 09:22:47;;;;;;;48.50;34.70;;;;;;;11.87;86.88;99799.80;130482;1263;107541;-83
2024/03/01 09:26:11;;;;;;;52.80;37.00;;;;;;;11.93;86.75;99802.28;130551;1265;108674;-83
2024/03/01 09:29:36;;;;;;;58.70;38.20;;;;;;;11.96;86.20;99794.44;130506;1259;107985;-86
2024/03/01 09:32:41;;;;;;;54.90;37.40;;;;;;;12.01;86.08;99788.70;130613;1263;107665;-84
2024/03/01 09:35:50;;;;;;;71.50;39.70;;;;;;;12.06;86.15;99798.04;130541;1259;107690;-84
2024/03/01 09:39:04;;;;;;;57.60;38.00;;;;;;;12.09;86.01;99802.64;130320;1265;106761;-84
2024/03/01 09:42:28;;;;;;;77.30;44.90;;;;;;;12.14;86.01;99801.02;130443;1264;108117;-84
2024/03/01 09:45:54;;;;;;;67.10;43.70;;;;;;;12.15;84.96;99812.11;130417;1265;107576;-84
2024/03/01 09:49:10;;;;;;;58.70;37.00;;;;;;;12.07;84.63;99811.91;130505;1265;108541;-83
2024/03/01 09:52:30;;;;;;;46.50;31.70;;;;;;;12.08;85.68;99800.41;130278;1265;107508;-83
2024/03/01 09:55:53;;;;;;;51.20;33.40;;;;;;;12.21;85.31;99803.83;130245;1262;106665;-83
2024/03/01 09:59:13;;;;;;;45.90;31.80;;;;;;;12.31;84.76;99795.32;130349;1262;107795;-83
2024/03/01 10:02:31;;;;;;;45.50;32.50;;;;;;;12.38;84.70;99803.80;130309;1259;107964;-83
2024/03/01 10:05:51;;;;;;;54.70;33.70;;;;;;;12.54;84.68;99799.42;130338;1269;107658;-85
2024/03/01 10:09:07;;;;;;;48.30;32.80;;;;;;;12.76;84.31;99798.41;130522;1265;108599;-85
2024/03/01 10:12:28;;;;;;;47.00;33.10;;;;;;;12.81;83.05;99800.14;131190;1263;108704;-86
2024/03/01 10:15:41;;;;;;;45.10;30.80;;;;;;;12.86;83.37;99798.02;131988;1263;107900;-82
2024/03/01 10:19:02;;;;;;;43.60;30.70;;;;;;;12.90;83.13;99789.36;130843;1260;107613;-82
2024/03/01 10:22:21;;;;;;;44.30;30.80;;;;;;;12.98;82.92;99786.40;130707;1264;108610;-83
2024/03/01 10:25:41;;;;;;;40.60;28.30;;;;;;;13.02;82.04;99784.72;130692;1264;108696;-82
2024/03/01 10:29:04;;;;;;;44.80;29.80;;;;;;;13.09;82.49;99784.35;131284;1267;107392;-82
2024/03/01 10:32:35;;;;;;;43.30;29.00;;;;;;;13.21;82.33;99785.09;131594;1263;108501;-82
2024/03/01 10:35:53;;;;;;;41.40;29.70;;;;;;;13.31;82.16;99779.04;130647;1265;107581;-83
2024/03/01 10:39:04;;;;;;;39.60;27.00;;;;;;;13.42;81.65;99778.52;130751;1263;107749;-83
2024/03/01 10:42:15;;;;;;;39.30;28.30;;;;;;;13.44;81.09;99777.71;130849;1264;107225;-81
2024/03/01 10:45:30;;;;;;;42.40;28.30;;;;;;;13.43;80.68;99775.59;130819;1263;106967;-84
2024/03/01 10:48:43;;;;;;;37.90;27.90;;;;;;;13.39;81.25;99771.33;130990;1261;107517;-86
2024/03/01 10:51:52;;;;;;;37.00;26.80;;;;;;;13.41;81.18;99773.05;131513;1263;107370;-82
2024/03/01 10:54:59;;;;;;;38.90;28.00;;;;;;;13.36;80.64;99777.23;130801;1260;106491;-84
2024/03/01 10:58:10;;;;;;;36.60;27.10;;;;;;;13.27;80.53;99781.14;131034;1260;107282;-84
2024/03/01 11:01:24;;;;;;;38.40;26.00;;;;;;;13.15;79.67;99781.32;130616;1265;106753;-82
2024/03/01 11:04:39;;;;;;;36.20;26.50;;;;;;;12.95;79.92;99771.55;130421;1265;107574;-83
2024/03/01 11:07:56;;;;;;;37.70;27.10;;;;;;;12.84;80.23;99766.35;130683;1263;107108;-83
2024/03/01 11:11:07;;;;;;;37.80;26.80;;;;;;;12.74;79.77;99764.13;130436;1270;108380;-83
2024/03/01 11:14:16;;;;;;;36.90;26.80;;;;;;;12.69;80.12;99760.94;130441;1261;108566;-82
2024/03/01 11:17:25;;;;;;;40.20;27.10;;;;;;;12.68;80.24;99758.45;130564;1263;107946;-82
2024/03/01 11:20:38;;;;;;;43.50;27.90;;;;;;;12.67;79.62;99753.94;130462;1265;107577;-82
2024/03/01 11:23:51;;;;;;;36.40;25.90;;;;;;;12.68;80.00;99758.25;130467;1260;108743;-84
2024/03/01 11:27:00;;;;;;;42.10;29.20;;;;;;;12.75;79.78;99763.01;130633;1264;106657;-84
2024/03/01 11:30:11;;;;;;;37.90;25.60;;;;;;;12.85;79.71;99755.86;130598;1273;108860;-83
2024/03/01 11:33:17;;;;;;;37.60;24.90;;;;;;;13.01;79.68;99743.14;130750;1267;106622;-87
2024/03/01 11:36:41;;;;;;;33.50;25.10;;;;;;;13.20;78.86;99747.55;130775;1265;106696;-85
2024/03/01 11:39:52;;;;;;;38.40;26.30;;;;;;;13.33;78.85;99741.27;130347;1264;106118;-85
2024/03/01 11:43:10;;;;;;;34.40;23.70;;;;;;;13.42;78.99;99739.77;130551;1260;107171;-82
2024/03/01 11:46:34;;;;;;;37.40;25.50;;;;;;;13.48;78.29;99740.05;130366;1265;107600;-84
2024/03/01 11:49:54;;;;;;;34.90;25.00;;;;;;;13.51;78.44;99743.59;130632;1260;107786;-85
2024/03/01 11:53:11;;;;;;;38.20;27.40;;;;;;;13.51;78.45;99745.25;130467;1264;107836;-82
2024/03/01 11:56:38;;;;;;;38.20;26.30;;;;;;;13.49;77.99;99737.67;130385;1268;107806;-87
2024/03/01 12:00:01;;;;;;;34.90;25.70;;;;;;;13.45;77.85;99731.21;130533;1272;107483;-83
2024/03/01 12:03:31;;;;;;;33.70;24.70;;;;;;;13.40;77.97;99729.77;130671;1267;107795;-84
2024/03/01 12:07:04;;;;;;;33.60;23.70;;;;;;;13.38;78.26;99727.23;130642;1261;107766;-82
2024/03/01 12:10:25;;;;;;;35.70;24.70;;;;;;;13.38;77.46;99723.75;130450;1265;107047;-82
2024/03/01 12:13:37;;;;;;;37.60;27.00;;;;;;;13.32;77.22;99721.97;130492;1264;106602;-83
2024/03/01 12:16:54;;;;;;;35.20;25.10;;;;;;;13.25;76.85;99721.04;130379;1267;108495;-82
2024/03/01 12:20:05;;;;;;;31.70;23.20;;;;;;;13.22;77.17;99715.19;130920;1264;107611;-83
2024/03/01 12:23:36;;;;;;;32.50;24.20;;;;;;;13.25;77.07;99715.79;131851;1262;108421;-84
2024/03/01 12:26:50;;;;;;;35.20;25.10;;;;;;;13.28;77.07;99713.88;130494;1261;107745;-83
2024/03/01 12:30:17;;;;;;;34.50;23.30;;;;;;;13.33;77.12;99709.90;130437;1266;105785;-83
2024/03/01 12:33:54;;;;;;;32.50;22.40;;;;;;;13.35;76.36;99719.98;130423;1260;107818;-83
2024/03/01 12:37:11;;;;;;;31.90;22.40;;;;;;;13.36;76.61;99723.27;130522;1263;107208;-83
2024/03/01 12:40:18;;;;;;;33.40;23.30;;;;;;;13.40;76.32;99733.91;130441;1272;107775;-84
2024/03/01 12:43:43;;;;;;;33.60;23.20;;;;;;;13.40;76.32;99735.02;130602;1272;107078;-82
2024/03/01 12:47:19;;;;;;;30.00;22.10;;;;;;;13.39;76.39;99739.80;130574;1266;106869;-84
2024/03/01 12:50:42;;;;;;;31.30;23.50;;;;;;;13.38;75.94;99734.50;130503;1266;108766;-83
2024/03/01 12:54:04;;;;;;;;;;;;;;;13.37;75.76;99732.88;131135;1261;108759;-84
2024/03/01 12:57:21;;;;;;;29.30;22.30;;;;;;;13.38;76.03;99720.98;132845;1260;106953;-83
2024/03/01 13:00:34;;;;;;;30.00;21.90;;;;;;;13.43;76.29;99710.66;130426;1266;108659;-83
2024/03/01 13:03:50;;;;;;;29.00;22.10;;;;;;;13.47;75.88;99711.92;130789;1263;108307;-83
2024/03/01 13:06:58;;;;;;;34.40;23.10;;;;;;;13.50;75.93;99714.84;130789;1263;108742;-83
2024/03/01 13:10:04;;;;;;;31.60;22.60;;;;;;;13.52;75.80;99713.34;130460;1275;108583;-84
2024/03/01 13:13:26;;;;;;;32.50;24.00;;;;;;;13.50;75.36;99706.09;130397;1273;108690;-83
2024/03/01 13:16:32;;;;;;;32.30;23.30;;;;;;;13.43;75.16;99700.88;130760;1260;107866;-83
2024/03/01 13:19:49;;;;;;;32.40;24.20;;;;;;;13.38;75.37;99699.05;130468;1260;108520;-83
2024/03/01 13:23:03;;;;;;;34.70;23.70;;;;;;;13.31;75.32;99703.86;130466;1261;107017;-83
2024/03/01 13:26:30;;;;;;;34.00;23.30;;;;;;;13.27;75.30;99707.89;130603;1266;107689;-85
2024/03/01 13:29:39;;;;;;;39.30;28.50;;;;;;;13.20;75.32;99709.98;130451;1261;192352;-83
2024/03/01 13:32:51;;;;;;;34.40;26.50;;;;;;;13.15;75.08;99706.14;130368;1272;107571;-83
2024/03/01 13:36:09;;;;;;;38.10;28.10;;;;;;;13.09;75.00;99711.66;130908;1261;105659;-83
2024/03/01 13:39:26;;;;;;;39.20;27.70;;;;;;;13.04;75.20;99706.14;130882;1263;108640;-84
2024/03/01 13:42:41;;;;;;;35.30;27.00;;;;;;;13.04;75.29;99704.00;130472;1263;107534;-83
2024/03/01 13:45:49;;;;;;;36.60;25.60;;;;;;;13.02;75.12;99702.15;130490;1261;108254;-83
2024/03/01 13:48:58;;;;;;;35.40;25.70;;;;;;;12.96;75.12;99700.02;130497;1261;107783;-83
2024/03/01 13:52:07;;;;;;;36.40;26.50;;;;;;;12.90;75.01;99692.96;130459;1264;106482;-83
2024/03/01 13:55:15;;;;;;;37.20;27.40;;;;;;;12.83;75.40;99690.83;130345;1264;108454;-83
2024/03/01 13:58:21;;;;;;;33.60;24.10;;;;;;;12.82;75.50;99702.38;130515;1260;107640;-83
2024/03/01 14:01:29;;;;;;;35.00;26.30;;;;;;;12.82;75.35;99702.04;130506;1263;107524;-86
2024/03/01 14:04:35;;;;;;;37.50;25.60;;;;;;;12.78;75.27;99702.32;130659;1263;107986;-86
2024/03/01 14:07:40;;;;;;;35.20;25.10;;;;;;;12.70;74.85;99706.06;130548;1260;106501;-86
2024/03/01 14:10:48;;;;;;;34.10;23.60;;;;;;;12.61;74.77;99708.78;130589;1264;106711;-85
2024/03/01 14:13:54;;;;;;;32.40;23.20;;;;;;;12.54;74.96;99715.63;130830;1265;108780;-84